createdAt,value
2023-03-22T00:00:00.046Z,10.35
2023-03-22T00:01:00.935Z,10.33
2023-03-22T00:02:00.136Z,10.33
2023-03-22T00:02:59.093Z,10.34
2023-03-22T00:04:00.284Z,10.31
2023-03-22T00:05:00.055Z,10.31
2023-03-22T00:06:00.933Z,10.31
2023-03-22T00:07:00.088Z,10.31
2023-03-22T00:07:58.971Z,10.26
2023-03-22T00:08:59.943Z,10.26
2023-03-22T00:09:59.914Z,10.23
2023-03-22T00:11:00.919Z,10.22
2023-03-22T00:12:00.023Z,10.19
2023-03-22T00:12:59.114Z,10.16
2023-03-22T00:14:59.759Z,10.15
2023-03-22T00:15:59.820Z,10.12
2023-03-22T00:17:03.296Z,10.15
2023-03-22T00:18:00.623Z,10.13
2023-03-22T00:19:00.617Z,10.13
2023-03-22T00:19:59.674Z,10.12
2023-03-22T00:20:59.678Z,10.13
2023-03-22T00:22:00.589Z,10.12
2023-03-22T00:23:01.580Z,10.13
2023-03-22T00:24:00.552Z,10.13
2023-03-22T00:25:00.558Z,10.13
2023-03-22T00:26:00.516Z,10.13
2023-03-22T00:27:00.532Z,10.13
2023-03-22T00:28:01.481Z,10.15
2023-03-22T00:29:00.495Z,10.13
2023-03-22T00:30:00.503Z,10.10
2023-03-22T00:31:00.555Z,10.10
2023-03-22T00:32:00.492Z,10.12
2023-03-22T00:33:01.415Z,10.15
2023-03-22T00:33:59.519Z,10.15
2023-03-22T00:34:59.457Z,10.13
2023-03-22T00:36:00.417Z,10.12
2023-03-22T00:37:00.445Z,10.13
2023-03-22T00:37:59.460Z,10.15
2023-03-22T00:39:01.310Z,10.12
2023-03-22T00:40:00.404Z,10.13
2023-03-22T00:41:00.386Z,10.13
2023-03-22T00:41:59.391Z,10.15
2023-03-22T00:43:00.326Z,10.16
2023-03-22T00:44:00.299Z,10.13
2023-03-22T00:45:00.257Z,10.10
2023-03-22T00:46:00.400Z,10.10
2023-03-22T00:47:00.291Z,10.09
2023-03-22T00:48:00.335Z,10.05
2023-03-22T00:49:00.244Z,10.02
2023-03-22T00:50:00.205Z,10.02
2023-03-22T00:50:59.352Z,10.02
2023-03-22T00:52:00.498Z,10.01
2023-03-22T00:53:00.211Z,10.01
2023-03-22T00:54:00.201Z,10.01
2023-03-22T00:54:59.286Z,10.01
2023-03-22T00:56:00.174Z,9.98
2023-03-22T00:57:00.125Z,9.99
2023-03-22T00:57:59.176Z,9.98
2023-03-22T00:59:00.133Z,9.99
2023-03-22T01:00:00.142Z,10.01
2023-03-22T01:01:01.091Z,10.01
2023-03-22T01:02:00.141Z,10.01
2023-03-22T01:03:00.061Z,9.99
2023-03-22T01:04:00.139Z,9.97
2023-03-22T01:05:00.085Z,9.97
2023-03-22T01:05:59.984Z,9.94
2023-03-22T01:06:59.058Z,9.94
2023-03-22T01:07:59.988Z,9.94
2023-03-22T01:09:00.000Z,9.94
2023-03-22T01:10:00.002Z,9.92
2023-03-22T01:10:59.972Z,9.92
2023-03-22T01:12:00.893Z,9.94
2023-03-22T01:12:59.936Z,9.95
2023-03-22T01:13:58.999Z,9.95
2023-03-22T01:14:58.956Z,9.95
2023-03-22T01:15:59.883Z,9.92
2023-03-22T01:16:59.955Z,9.92
2023-03-22T01:18:00.794Z,9.92
2023-03-22T01:18:59.878Z,9.92
2023-03-22T01:19:58.925Z,9.89
2023-03-22T01:20:59.847Z,9.89
2023-03-22T01:21:59.803Z,9.89
2023-03-22T01:22:59.820Z,9.87
2023-03-22T01:24:00.724Z,9.89
2023-03-22T01:24:59.810Z,9.91
2023-03-22T01:25:59.773Z,9.91
2023-03-22T01:26:58.794Z,9.92
2023-03-22T01:27:58.812Z,9.92
2023-03-22T01:28:59.744Z,9.91
2023-03-22T01:30:00.654Z,9.92
2023-03-22T01:30:59.711Z,9.94
2023-03-22T01:31:59.690Z,9.97
2023-03-22T01:32:58.761Z,9.97
2023-03-22T01:33:58.715Z,9.97
2023-03-22T01:34:59.688Z,9.97
2023-03-22T01:36:00.614Z,9.95
2023-03-22T01:36:59.617Z,9.95
2023-03-22T01:37:58.672Z,9.97
2023-03-22T01:38:59.616Z,9.98
2023-03-22T01:39:59.666Z,10.01
2023-03-22T01:40:59.602Z,10.01
2023-03-22T01:41:59.536Z,10.02
2023-03-22T01:42:58.618Z,10.05
2023-03-22T01:43:59.524Z,10.07
2023-03-22T01:44:59.532Z,10.05
2023-03-22T01:45:59.568Z,10.04
2023-03-22T01:46:59.493Z,10.02
2023-03-22T01:47:59.597Z,9.98
2023-03-22T01:48:58.614Z,9.95
2023-03-22T01:49:59.446Z,9.95
2023-03-22T01:50:59.696Z,9.92
2023-03-22T01:51:59.447Z,9.92
2023-03-22T01:53:00.360Z,9.87
2023-03-22T01:53:58.447Z,9.87
2023-03-22T01:54:59.386Z,9.87
2023-03-22T01:55:59.414Z,9.89
2023-03-22T01:56:59.392Z,9.91
2023-03-22T01:57:59.333Z,9.91
2023-03-22T01:58:58.407Z,9.92
2023-03-22T01:59:59.318Z,9.94
2023-03-22T02:00:59.345Z,9.95
2023-03-22T02:01:59.294Z,9.97
2023-03-22T02:02:59.309Z,9.95
2023-03-22T02:03:59.245Z,9.89
2023-03-22T02:04:58.453Z,9.86
2023-03-22T02:05:59.286Z,9.84
2023-03-22T02:06:58.273Z,9.84
2023-03-22T02:07:59.238Z,9.80
2023-03-22T02:08:59.204Z,9.77
2023-03-22T02:09:59.190Z,9.73
2023-03-22T02:10:59.241Z,9.73
2023-03-22T02:11:59.170Z,9.72
2023-03-22T02:12:59.175Z,9.72
2023-03-22T02:13:58.223Z,9.66
2023-03-22T02:14:58.221Z,9.65
2023-03-22T02:15:59.195Z,9.68
2023-03-22T02:16:59.156Z,9.68
2023-03-22T02:17:58.163Z,9.69
2023-03-22T02:18:58.135Z,9.72
2023-03-22T02:19:58.170Z,9.73
2023-03-22T02:21:00.186Z,9.69
2023-03-22T02:21:58.105Z,9.69
2023-03-22T02:22:58.112Z,9.69
2023-03-22T02:23:58.089Z,9.66
2023-03-22T02:24:58.073Z,9.65
2023-03-22T02:25:58.082Z,9.64
2023-03-22T02:26:58.961Z,9.62
2023-03-22T02:27:58.031Z,9.64
2023-03-22T02:28:58.059Z,9.66
2023-03-22T02:29:57.999Z,9.66
2023-03-22T02:30:58.003Z,9.65
2023-03-22T02:31:59.865Z,9.65
2023-03-22T02:32:58.066Z,9.65
2023-03-22T02:33:57.978Z,9.62
2023-03-22T02:34:58.658Z,9.62
2023-03-22T02:35:57.996Z,9.61
2023-03-22T02:36:58.933Z,9.58
2023-03-22T02:37:58.062Z,9.59
2023-03-22T02:38:57.918Z,9.59
2023-03-22T02:39:57.870Z,9.58
2023-03-22T02:40:57.874Z,9.59
2023-03-22T02:41:57.883Z,9.59
2023-03-22T02:42:58.770Z,9.61
2023-03-22T02:43:57.853Z,9.59
2023-03-22T02:44:57.832Z,9.58
2023-03-22T02:45:58.523Z,9.59
2023-03-22T02:46:58.812Z,9.59
2023-03-22T02:47:58.813Z,9.59
2023-03-22T02:48:57.877Z,9.61
2023-03-22T02:49:57.749Z,9.58
2023-03-22T02:50:57.742Z,9.59
2023-03-22T02:51:57.707Z,9.59
2023-03-22T02:52:58.643Z,9.58
2023-03-22T02:53:57.786Z,9.56
2023-03-22T02:54:57.680Z,9.58
2023-03-22T02:55:57.671Z,9.59
2023-03-22T02:56:57.653Z,9.58
2023-03-22T02:57:58.621Z,9.55
2023-03-22T02:58:57.777Z,9.55
2023-03-22T02:59:57.647Z,9.55
2023-03-22T03:00:57.648Z,9.55
2023-03-22T03:01:57.710Z,9.54
2023-03-22T03:02:57.585Z,9.51
2023-03-22T03:03:58.523Z,9.50
2023-03-22T03:04:57.535Z,9.48
2023-03-22T03:05:57.533Z,9.47
2023-03-22T03:06:57.545Z,9.47
2023-03-22T03:07:57.553Z,9.47
2023-03-22T03:08:58.448Z,9.44
2023-03-22T03:09:57.505Z,9.43
2023-03-22T03:10:57.460Z,9.41
2023-03-22T03:11:57.459Z,9.39
2023-03-22T03:12:57.477Z,9.39
2023-03-22T03:13:58.389Z,9.39
2023-03-22T03:14:57.422Z,9.39
2023-03-22T03:15:57.487Z,9.39
2023-03-22T03:16:57.462Z,9.37
2023-03-22T03:17:57.435Z,9.37
2023-03-22T03:18:57.385Z,9.34
2023-03-22T03:19:58.288Z,9.34
2023-03-22T03:20:57.387Z,9.32
2023-03-22T03:21:57.351Z,9.32
2023-03-22T03:22:57.344Z,9.31
2023-03-22T03:23:57.320Z,9.29
2023-03-22T03:24:57.321Z,9.31
2023-03-22T03:25:58.199Z,9.29
2023-03-22T03:26:57.264Z,9.29
2023-03-22T03:27:57.279Z,9.28
2023-03-22T03:28:57.267Z,9.25
2023-03-22T03:29:57.237Z,9.23
2023-03-22T03:30:57.210Z,9.23
2023-03-22T03:31:58.174Z,9.21
2023-03-22T03:32:57.210Z,9.21
2023-03-22T03:33:57.257Z,9.19
2023-03-22T03:34:57.179Z,9.19
2023-03-22T03:35:57.183Z,9.18
2023-03-22T03:36:57.147Z,9.14
2023-03-22T03:37:58.080Z,9.16
2023-03-22T03:38:57.126Z,9.13
2023-03-22T03:39:57.130Z,9.13
2023-03-22T03:40:57.101Z,9.10
2023-03-22T03:41:57.103Z,9.11
2023-03-22T03:42:57.988Z,9.10
2023-03-22T03:43:57.044Z,9.11
2023-03-22T03:44:57.056Z,9.11
2023-03-22T03:45:57.102Z,9.13
2023-03-22T03:46:57.022Z,9.13
2023-03-22T03:47:57.194Z,9.14
2023-03-22T03:48:57.911Z,9.16
2023-03-22T03:49:57.025Z,9.16
2023-03-22T03:50:56.983Z,9.16
2023-03-22T03:51:56.968Z,9.16
2023-03-22T03:52:56.986Z,9.16
2023-03-22T03:53:57.941Z,9.13
2023-03-22T03:54:56.949Z,9.14
2023-03-22T03:55:56.907Z,9.13
2023-03-22T03:56:56.908Z,9.14
2023-03-22T03:57:56.963Z,9.14
2023-03-22T03:58:58.762Z,9.16
2023-03-22T03:59:56.910Z,9.16
2023-03-22T04:00:56.839Z,9.16
2023-03-22T04:01:56.888Z,9.19
2023-03-22T04:02:56.830Z,9.22
2023-03-22T04:03:56.850Z,9.21
2023-03-22T04:04:57.766Z,9.22
2023-03-22T04:05:56.800Z,9.23
2023-03-22T04:06:56.878Z,9.23
2023-03-22T04:07:56.770Z,9.23
2023-03-22T04:08:56.808Z,9.23
2023-03-22T04:09:56.731Z,9.23
2023-03-22T04:10:57.653Z,9.23
2023-03-22T04:11:56.710Z,9.23
2023-03-22T04:12:56.717Z,9.22
2023-03-22T04:13:56.688Z,9.21
2023-03-22T04:14:56.687Z,9.21
2023-03-22T04:15:57.601Z,9.21
2023-03-22T04:16:56.741Z,9.18
2023-03-22T04:17:57.623Z,9.16
2023-03-22T04:18:56.707Z,9.16
2023-03-22T04:19:56.642Z,9.16
2023-03-22T04:20:57.518Z,9.16
2023-03-22T04:21:56.599Z,9.16
2023-03-22T04:22:56.626Z,9.14
2023-03-22T04:23:56.573Z,9.14
2023-03-22T04:24:56.553Z,9.16
2023-03-22T04:25:57.471Z,9.19
2023-03-22T04:26:56.553Z,9.18
2023-03-22T04:27:56.577Z,9.16
2023-03-22T04:28:56.488Z,9.18
2023-03-22T04:29:56.521Z,9.16
2023-03-22T04:30:57.450Z,9.14
2023-03-22T04:31:56.446Z,9.13
2023-03-22T04:32:56.477Z,9.11
2023-03-22T04:33:56.439Z,9.10
2023-03-22T04:34:56.408Z,9.10
2023-03-22T04:35:56.444Z,9.08
2023-03-22T04:36:57.315Z,9.06
2023-03-22T04:37:56.475Z,9.08
2023-03-22T04:38:56.437Z,9.08
2023-03-22T04:39:56.336Z,9.04
2023-03-22T04:40:56.385Z,9.04
2023-03-22T04:41:57.257Z,9.06
2023-03-22T04:42:57.255Z,9.11
2023-03-22T04:43:56.307Z,9.10
2023-03-22T04:44:56.309Z,9.08
2023-03-22T04:45:56.344Z,9.08
2023-03-22T04:46:56.251Z,9.11
2023-03-22T04:47:57.223Z,9.13
2023-03-22T04:48:56.233Z,9.14
2023-03-22T04:49:56.226Z,9.16
2023-03-22T04:50:56.203Z,9.14
2023-03-22T04:51:56.294Z,9.13
2023-03-22T04:52:57.117Z,9.13
2023-03-22T04:53:56.175Z,9.13
2023-03-22T04:54:56.162Z,9.14
2023-03-22T04:55:56.142Z,9.16
2023-03-22T04:56:56.165Z,9.16
2023-03-22T04:57:57.071Z,9.19
2023-03-22T04:58:56.109Z,9.18
2023-03-22T04:59:56.090Z,9.18
2023-03-22T05:00:56.135Z,9.19
2023-03-22T05:01:56.102Z,9.19
2023-03-22T05:02:57.009Z,9.21
2023-03-22T05:03:56.040Z,9.25
2023-03-22T05:04:56.033Z,9.25
2023-03-22T05:05:56.065Z,9.26
2023-03-22T05:06:56.053Z,9.29
2023-03-22T05:07:55.991Z,9.32
2023-03-22T05:08:56.959Z,9.36
2023-03-22T05:09:55.978Z,9.37
2023-03-22T05:10:55.965Z,9.37
2023-03-22T05:11:55.979Z,9.37
2023-03-22T05:12:55.972Z,9.36
2023-03-22T05:13:55.916Z,9.34
2023-03-22T05:14:56.901Z,9.32
2023-03-22T05:15:55.998Z,9.32
2023-03-22T05:16:55.915Z,9.29
2023-03-22T05:17:55.948Z,9.29
2023-03-22T05:18:55.927Z,9.28
2023-03-22T05:19:55.913Z,9.28
2023-03-22T05:20:56.775Z,9.29
2023-03-22T05:21:55.846Z,9.26
2023-03-22T05:22:55.790Z,9.25
2023-03-22T05:23:55.839Z,9.23
2023-03-22T05:24:55.810Z,9.23
2023-03-22T05:25:56.732Z,9.22
2023-03-22T05:26:55.769Z,9.21
2023-03-22T05:27:55.721Z,9.19
2023-03-22T05:28:55.726Z,9.21
2023-03-22T05:29:55.699Z,9.23
2023-03-22T05:30:57.299Z,9.23
2023-03-22T05:31:55.724Z,9.21
2023-03-22T05:32:55.741Z,9.23
2023-03-22T05:33:55.770Z,9.23
2023-03-22T05:34:55.669Z,9.26
2023-03-22T05:35:55.738Z,9.28
2023-03-22T05:36:56.614Z,9.31
2023-03-22T05:37:55.703Z,9.32
2023-03-22T05:38:55.600Z,9.34
2023-03-22T05:39:55.608Z,9.34
2023-03-22T05:40:55.605Z,9.36
2023-03-22T05:41:56.535Z,9.39
2023-03-22T05:42:55.584Z,9.41
2023-03-22T05:43:55.586Z,9.41
2023-03-22T05:44:55.533Z,9.41
2023-03-22T05:45:55.562Z,9.40
2023-03-22T05:46:56.545Z,9.39
2023-03-22T05:47:55.591Z,9.40
2023-03-22T05:48:55.510Z,9.41
2023-03-22T05:49:55.526Z,9.41
2023-03-22T05:50:55.470Z,9.41
2023-03-22T05:51:55.479Z,9.41
2023-03-22T05:52:56.373Z,9.41
2023-03-22T05:53:55.451Z,9.39
2023-03-22T05:54:55.554Z,9.37
2023-03-22T05:55:55.401Z,9.40
2023-03-22T05:56:55.873Z,9.40
2023-03-22T05:57:56.340Z,9.41
2023-03-22T05:58:55.364Z,9.41
2023-03-22T05:59:55.359Z,9.44
2023-03-22T06:00:55.440Z,9.46
2023-03-22T06:01:55.353Z,9.46
2023-03-22T06:02:55.354Z,9.46
2023-03-22T06:03:56.265Z,9.46
2023-03-22T06:04:55.306Z,9.44
2023-03-22T06:05:55.381Z,9.43
2023-03-22T06:06:55.299Z,9.43
2023-03-22T06:07:55.283Z,9.46
2023-03-22T06:09:01.654Z,9.46
2023-03-22T06:09:57.655Z,9.47
2023-03-22T06:10:55.230Z,9.43
2023-03-22T06:11:55.326Z,9.41
2023-03-22T06:12:55.240Z,9.41
2023-03-22T06:13:55.198Z,9.39
2023-03-22T06:14:55.179Z,9.37
2023-03-22T06:15:56.132Z,9.37
2023-03-22T06:16:55.157Z,9.36
2023-03-22T06:17:55.144Z,9.32
2023-03-22T06:18:55.141Z,9.31
2023-03-22T06:19:55.154Z,9.31
2023-03-22T06:20:55.088Z,9.34
2023-03-22T06:21:56.043Z,9.32
2023-03-22T06:22:55.070Z,9.36
2023-03-22T06:23:55.047Z,9.39
2023-03-22T06:24:55.057Z,9.41
2023-03-22T06:25:55.017Z,9.46
2023-03-22T06:26:55.937Z,9.46
2023-03-22T06:27:55.010Z,9.46
2023-03-22T06:28:55.029Z,9.46
2023-03-22T06:29:55.032Z,9.50
2023-03-22T06:30:55.020Z,9.55
2023-03-22T06:31:54.984Z,9.59
2023-03-22T06:32:55.955Z,9.59
2023-03-22T06:33:56.030Z,9.59
2023-03-22T06:34:54.911Z,9.59
2023-03-22T06:35:54.950Z,9.56
2023-03-22T06:36:54.877Z,9.56
2023-03-22T06:37:54.887Z,9.55
2023-03-22T06:38:55.811Z,9.56
2023-03-22T06:39:54.835Z,9.59
2023-03-22T06:40:54.847Z,9.62
2023-03-22T06:41:54.819Z,9.59
2023-03-22T06:42:54.820Z,9.58
2023-03-22T06:43:55.693Z,9.58
2023-03-22T06:44:54.781Z,9.59
2023-03-22T06:45:54.805Z,9.58
2023-03-22T06:46:54.737Z,9.56
2023-03-22T06:47:54.755Z,9.61
2023-03-22T06:48:55.667Z,9.62
2023-03-22T06:49:54.712Z,9.62
2023-03-22T06:50:54.718Z,9.64
2023-03-22T06:51:54.675Z,9.62
2023-03-22T06:52:54.666Z,9.62
2023-03-22T06:53:55.588Z,9.64
2023-03-22T06:54:54.637Z,9.65
2023-03-22T06:55:55.476Z,9.65
2023-03-22T06:56:54.604Z,9.68
2023-03-22T06:57:54.602Z,9.69
2023-03-22T06:58:54.604Z,9.72
2023-03-22T06:59:55.529Z,9.74
2023-03-22T07:00:54.584Z,9.73
2023-03-22T07:01:54.583Z,9.74
2023-03-22T07:02:54.596Z,9.76
2023-03-22T07:03:54.532Z,9.74
2023-03-22T07:04:54.502Z,9.76
2023-03-22T07:05:55.472Z,9.79
2023-03-22T07:06:54.502Z,9.84
2023-03-22T07:07:54.553Z,9.87
2023-03-22T07:08:54.476Z,9.89
2023-03-22T07:09:54.437Z,9.91
2023-03-22T07:10:55.444Z,9.86
2023-03-22T07:11:54.445Z,9.87
2023-03-22T07:12:54.471Z,9.91
2023-03-22T07:13:54.473Z,9.92
2023-03-22T07:14:54.381Z,9.94
2023-03-22T07:15:54.437Z,9.97
2023-03-22T07:16:55.331Z,9.98
2023-03-22T07:17:54.352Z,10.01
2023-03-22T07:18:54.383Z,10.01
2023-03-22T07:19:54.366Z,10.02
2023-03-22T07:20:54.308Z,10.04
2023-03-22T07:21:54.341Z,10.05
2023-03-22T07:22:55.254Z,10.10
2023-03-22T07:23:54.314Z,10.12
2023-03-22T07:24:58.342Z,10.10
2023-03-22T07:25:55.771Z,10.09
2023-03-22T07:26:54.341Z,10.07
2023-03-22T07:27:54.250Z,10.07
2023-03-22T07:28:55.181Z,10.09
2023-03-22T07:29:54.272Z,10.09
2023-03-22T07:30:54.235Z,10.12
2023-03-22T07:31:54.307Z,10.15
2023-03-22T07:32:54.372Z,10.16
2023-03-22T07:33:55.135Z,10.15
2023-03-22T07:34:54.326Z,10.17
2023-03-22T07:35:54.122Z,10.19
2023-03-22T07:36:54.112Z,10.20
2023-03-22T07:37:54.101Z,10.20
2023-03-22T07:38:54.298Z,10.23
2023-03-22T07:39:55.110Z,10.25
2023-03-22T07:40:54.043Z,10.30
2023-03-22T07:41:54.967Z,10.30
2023-03-22T07:42:55.835Z,10.31
2023-03-22T07:44:02.183Z,10.28
2023-03-22T07:44:55.577Z,10.33
2023-03-22T07:45:54.953Z,10.37
2023-03-22T07:46:54.138Z,10.40
2023-03-22T07:47:54.012Z,10.42
2023-03-22T07:48:53.960Z,10.44
2023-03-22T07:49:53.960Z,10.48
2023-03-22T07:50:54.019Z,10.48
2023-03-22T07:51:55.003Z,10.49
2023-03-22T07:52:53.930Z,10.54
2023-03-22T07:53:53.892Z,10.60
2023-03-22T07:54:53.885Z,10.68
2023-03-22T07:55:53.861Z,10.78
2023-03-22T07:56:53.906Z,10.87
2023-03-22T07:57:54.777Z,10.94
2023-03-22T07:58:53.872Z,10.97
2023-03-22T07:59:53.874Z,10.96
2023-03-22T08:00:53.912Z,10.97
2023-03-22T08:01:53.827Z,11.00
2023-03-22T08:02:53.822Z,11.05
2023-03-22T08:03:54.721Z,11.11
2023-03-22T08:04:56.204Z,11.17
2023-03-22T08:05:53.728Z,11.19
2023-03-22T08:06:53.883Z,11.22
2023-03-22T08:07:53.753Z,11.18
2023-03-22T08:08:53.784Z,11.19
2023-03-22T08:09:54.649Z,11.19
2023-03-22T08:10:53.778Z,11.19
2023-03-22T08:11:53.658Z,11.17
2023-03-22T08:12:53.661Z,11.15
2023-03-22T08:13:53.656Z,11.19
2023-03-22T08:14:53.657Z,11.22
2023-03-22T08:15:54.548Z,11.26
2023-03-22T08:16:53.610Z,11.26
2023-03-22T08:17:53.592Z,11.29
2023-03-22T08:18:53.581Z,11.33
2023-03-22T08:19:53.552Z,11.37
2023-03-22T08:20:54.533Z,11.40
2023-03-22T08:21:53.605Z,11.40
2023-03-22T08:22:53.530Z,11.43
2023-03-22T08:23:53.997Z,11.48
2023-03-22T08:24:53.722Z,11.54
2023-03-22T08:25:53.546Z,11.62
2023-03-22T08:26:54.456Z,11.68
2023-03-22T08:27:53.455Z,11.69
2023-03-22T08:28:53.446Z,11.72
2023-03-22T08:29:53.460Z,11.73
2023-03-22T08:30:53.414Z,11.70
2023-03-22T08:31:53.553Z,11.73
2023-03-22T08:32:54.342Z,11.75
2023-03-22T08:33:53.413Z,11.81
2023-03-22T08:34:53.399Z,11.81
2023-03-22T08:35:53.617Z,11.86
2023-03-22T08:36:53.335Z,11.86
2023-03-22T08:37:53.338Z,11.90
2023-03-22T08:38:54.247Z,11.99
2023-03-22T08:39:53.319Z,12.00
2023-03-22T08:40:53.299Z,12.03
2023-03-22T08:41:53.296Z,12.07
2023-03-22T08:42:53.538Z,12.10
2023-03-22T08:43:54.201Z,12.13
2023-03-22T08:44:53.291Z,12.17
2023-03-22T08:45:53.292Z,12.15
2023-03-22T08:46:53.239Z,12.15
2023-03-22T08:47:53.292Z,12.21
2023-03-22T08:48:54.172Z,12.21
2023-03-22T08:49:53.223Z,12.21
2023-03-22T08:50:53.225Z,12.22
2023-03-22T08:51:53.167Z,12.22
2023-03-22T08:52:53.124Z,12.20
2023-03-22T08:53:54.047Z,12.17
2023-03-22T08:54:53.127Z,12.13
2023-03-22T08:55:53.107Z,12.13
2023-03-22T08:56:53.080Z,12.15
2023-03-22T08:57:53.087Z,12.20
2023-03-22T08:58:53.118Z,12.24
2023-03-22T08:59:53.964Z,12.29
2023-03-22T09:00:53.110Z,12.31
2023-03-22T09:01:53.180Z,12.36
2023-03-22T09:02:52.993Z,12.40
2023-03-22T09:03:53.007Z,12.46
2023-03-22T09:04:54.008Z,12.53
2023-03-22T09:05:52.981Z,12.61
2023-03-22T09:06:52.959Z,12.65
2023-03-22T09:07:53.927Z,12.73
2023-03-22T09:08:52.932Z,12.80
2023-03-22T09:09:53.002Z,12.83
2023-03-22T09:10:53.844Z,12.87
2023-03-22T09:11:52.908Z,12.94
2023-03-22T09:12:52.917Z,13.00
2023-03-22T09:13:52.933Z,13.01
2023-03-22T09:14:53.334Z,13.12
2023-03-22T09:15:53.820Z,13.19
2023-03-22T09:16:52.906Z,13.23
2023-03-22T09:17:52.926Z,13.31
2023-03-22T09:18:52.985Z,13.46
2023-03-22T09:20:05.898Z,13.60
2023-03-22T09:20:55.242Z,13.71
2023-03-22T09:21:52.778Z,13.79
2023-03-22T09:22:52.765Z,13.92
2023-03-22T09:23:52.752Z,13.95
2023-03-22T09:24:52.712Z,13.90
2023-03-22T09:25:53.665Z,13.93
2023-03-22T09:26:52.754Z,14.04
2023-03-22T09:27:52.682Z,14.15
2023-03-22T09:28:52.674Z,14.29
2023-03-22T09:29:52.664Z,14.40
2023-03-22T09:30:53.595Z,14.51
2023-03-22T09:31:52.671Z,14.60
2023-03-22T09:32:52.638Z,14.68
2023-03-22T09:33:52.607Z,14.65
2023-03-22T09:34:52.643Z,14.50
2023-03-22T09:35:52.622Z,14.43
2023-03-22T09:36:53.562Z,14.40
2023-03-22T09:37:52.589Z,14.36
2023-03-22T09:38:52.555Z,14.30
2023-03-22T09:39:52.541Z,14.32
2023-03-22T09:40:52.537Z,14.37
2023-03-22T09:41:53.480Z,14.36
2023-03-22T09:42:52.511Z,14.40
2023-03-22T09:43:52.524Z,14.41
2023-03-22T09:44:52.495Z,14.47
2023-03-22T09:45:52.482Z,14.51
2023-03-22T09:46:53.391Z,14.44
2023-03-22T09:47:52.483Z,14.44
2023-03-22T09:48:52.566Z,14.50
2023-03-22T09:49:54.095Z,14.58
2023-03-22T09:50:52.477Z,14.65
2023-03-22T09:51:53.404Z,14.70
2023-03-22T09:52:53.302Z,14.79
2023-03-22T09:53:52.396Z,14.89
2023-03-22T09:54:53.283Z,15.03
2023-03-22T09:55:52.311Z,15.18
2023-03-22T09:56:53.343Z,15.40
2023-03-22T09:57:52.345Z,15.52
2023-03-22T09:58:52.318Z,15.67
2023-03-22T09:59:52.328Z,15.80
2023-03-22T10:00:52.367Z,15.91
2023-03-22T10:01:52.510Z,15.97
2023-03-22T10:02:53.253Z,15.92
2023-03-22T10:03:52.226Z,15.90
2023-03-22T10:04:52.265Z,15.98
2023-03-22T10:05:52.229Z,16.00
2023-03-22T10:06:52.192Z,16.01
2023-03-22T10:07:52.178Z,15.91
2023-03-22T10:08:53.089Z,15.84
2023-03-22T10:09:52.231Z,15.82
2023-03-22T10:10:52.179Z,15.83
2023-03-22T10:11:52.129Z,15.82
2023-03-22T10:12:52.147Z,15.86
2023-03-22T10:13:52.107Z,15.91
2023-03-22T10:14:53.026Z,15.80
2023-03-22T10:15:52.103Z,15.83
2023-03-22T10:16:52.098Z,15.90
2023-03-22T10:17:52.062Z,15.97
2023-03-22T10:18:52.058Z,16.01
2023-03-22T10:19:52.079Z,16.05
2023-03-22T10:20:52.991Z,15.98
2023-03-22T10:21:52.009Z,15.94
2023-03-22T10:22:53.336Z,15.92
2023-03-22T10:23:52.083Z,15.88
2023-03-22T10:24:51.988Z,15.86
2023-03-22T10:25:51.978Z,15.83
2023-03-22T10:26:52.954Z,15.82
2023-03-22T10:27:51.923Z,15.86
2023-03-22T10:28:51.933Z,15.92
2023-03-22T10:29:51.897Z,16.01
2023-03-22T10:30:51.877Z,16.05
2023-03-22T10:31:52.854Z,16.13
2023-03-22T10:32:57.922Z,16.26
2023-03-22T10:33:53.377Z,16.38
2023-03-22T10:34:51.824Z,16.58
2023-03-22T10:35:51.949Z,16.79
2023-03-22T10:36:51.810Z,16.83
2023-03-22T10:37:52.741Z,16.93
2023-03-22T10:38:51.823Z,17.04
2023-03-22T10:39:51.836Z,16.89
2023-03-22T10:40:52.519Z,16.83
2023-03-22T10:41:51.780Z,16.74
2023-03-22T10:42:52.668Z,16.68
2023-03-22T10:43:51.780Z,16.64
2023-03-22T10:44:51.722Z,16.58
2023-03-22T10:45:51.710Z,16.54
2023-03-22T10:46:51.718Z,16.56
2023-03-22T10:47:52.694Z,16.50
2023-03-22T10:48:51.663Z,16.46
2023-03-22T10:49:51.641Z,16.43
2023-03-22T10:50:51.641Z,16.50
2023-03-22T10:51:51.683Z,16.36
2023-03-22T10:52:51.666Z,16.36
2023-03-22T10:53:52.567Z,16.39
2023-03-22T10:54:51.625Z,16.39
2023-03-22T10:55:51.571Z,16.35
2023-03-22T10:56:51.571Z,16.35
2023-03-22T10:57:51.553Z,16.36
2023-03-22T10:58:52.495Z,16.38
2023-03-22T10:59:51.534Z,16.41
2023-03-22T11:00:51.593Z,16.35
2023-03-22T11:01:51.643Z,16.33
2023-03-22T11:02:51.546Z,16.38
2023-03-22T11:03:51.461Z,16.39
2023-03-22T11:04:52.401Z,16.47
2023-03-22T11:05:51.473Z,16.47
2023-03-22T11:06:53.292Z,16.50
2023-03-22T11:07:51.419Z,16.56
2023-03-22T11:08:51.473Z,16.58
2023-03-22T11:09:52.340Z,16.64
2023-03-22T11:10:51.500Z,16.72
2023-03-22T11:11:51.368Z,16.75
2023-03-22T11:12:51.365Z,16.84
2023-03-22T11:13:51.355Z,17.04
2023-03-22T11:14:51.363Z,17.27
2023-03-22T11:15:52.286Z,17.33
2023-03-22T11:16:51.384Z,17.31
2023-03-22T11:17:51.424Z,17.30
2023-03-22T11:18:51.293Z,17.24
2023-03-22T11:19:51.341Z,17.08
2023-03-22T11:20:52.259Z,16.90
2023-03-22T11:21:51.246Z,16.79
2023-03-22T11:22:51.265Z,16.74
2023-03-22T11:23:51.214Z,16.60
2023-03-22T11:24:51.311Z,16.43
2023-03-22T11:25:51.213Z,16.31
2023-03-22T11:26:52.117Z,16.20
2023-03-22T11:27:51.231Z,16.16
2023-03-22T11:28:51.153Z,16.12
2023-03-22T11:29:51.167Z,16.08
2023-03-22T11:30:51.144Z,16.13
2023-03-22T11:31:54.305Z,16.26
2023-03-22T11:32:51.184Z,16.42
2023-03-22T11:33:51.100Z,16.54
2023-03-22T11:34:51.096Z,16.68
2023-03-22T11:35:51.120Z,16.74
2023-03-22T11:36:51.978Z,16.75
2023-03-22T11:37:51.087Z,16.79
2023-03-22T11:38:51.025Z,16.79
2023-03-22T11:39:51.035Z,16.79
2023-03-22T11:40:51.011Z,16.91
2023-03-22T11:41:51.041Z,17.11
2023-03-22T11:42:51.906Z,17.16
2023-03-22T11:43:52.009Z,17.16
2023-03-22T11:44:50.972Z,17.22
2023-03-22T11:45:51.043Z,17.19
2023-03-22T11:46:50.968Z,17.16
2023-03-22T11:47:51.897Z,17.33
2023-03-22T11:48:51.039Z,17.44
2023-03-22T11:49:50.951Z,17.57
2023-03-22T11:50:50.922Z,17.70
2023-03-22T11:51:50.879Z,17.87
2023-03-22T11:52:51.794Z,17.94
2023-03-22T11:53:50.897Z,18.05
2023-03-22T11:54:50.885Z,18.33
2023-03-22T11:55:50.815Z,18.41
2023-03-22T11:56:50.888Z,18.47
2023-03-22T11:57:51.721Z,18.56
2023-03-22T11:58:50.773Z,18.71
2023-03-22T11:59:50.767Z,19.00
2023-03-22T12:00:50.768Z,19.26
2023-03-22T12:01:50.748Z,19.22
2023-03-22T12:02:50.836Z,19.31
2023-03-22T12:03:51.793Z,19.34
2023-03-22T12:04:50.788Z,19.11
2023-03-22T12:05:50.697Z,19.12
2023-03-22T12:06:50.750Z,19.04
2023-03-22T12:07:50.830Z,19.12
2023-03-22T12:08:51.637Z,19.14
2023-03-22T12:09:51.605Z,19.09
2023-03-22T12:10:50.615Z,18.95
2023-03-22T12:11:50.626Z,18.65
2023-03-22T12:12:50.658Z,18.56
2023-03-22T12:13:50.595Z,18.71
2023-03-22T12:14:51.540Z,18.75
2023-03-22T12:15:51.582Z,18.98
2023-03-22T12:16:50.678Z,19.34
2023-03-22T12:17:50.656Z,19.67
2023-03-22T12:18:50.554Z,20.06
2023-03-22T12:19:50.587Z,20.40
2023-03-22T12:20:50.501Z,20.66
2023-03-22T12:21:51.463Z,20.81
2023-03-22T12:22:50.518Z,20.75
2023-03-22T12:23:50.523Z,20.06
2023-03-22T12:24:50.485Z,19.85
2023-03-22T12:25:51.423Z,19.74
2023-03-22T12:26:51.578Z,19.76
2023-03-22T12:27:51.393Z,19.64
2023-03-22T12:28:50.500Z,19.45
2023-03-22T12:29:50.423Z,19.54
2023-03-22T12:30:50.368Z,19.48
2023-03-22T12:31:52.712Z,19.24
2023-03-22T12:32:50.382Z,19.08
2023-03-22T12:33:50.388Z,18.98
2023-03-22T12:34:51.089Z,19.02
2023-03-22T12:35:50.428Z,18.98
2023-03-22T12:36:50.295Z,19.08
2023-03-22T12:37:51.296Z,19.24
2023-03-22T12:38:51.263Z,19.44
2023-03-22T12:39:50.315Z,19.54
2023-03-22T12:40:50.267Z,19.62
2023-03-22T12:41:50.297Z,19.59
2023-03-22T12:42:53.604Z,19.47
2023-03-22T12:43:51.754Z,19.40
2023-03-22T12:44:58.924Z,19.39
2023-03-22T12:45:51.703Z,19.40
2023-03-22T12:46:50.239Z,19.63
2023-03-22T12:47:50.215Z,19.77
2023-03-22T12:48:51.220Z,19.82
2023-03-22T12:49:50.155Z,19.69
2023-03-22T12:50:50.218Z,19.48
2023-03-22T12:51:50.126Z,19.71
2023-03-22T12:52:50.106Z,19.71
2023-03-22T12:53:50.768Z,19.89
2023-03-22T12:54:51.057Z,19.96
2023-03-22T12:55:50.213Z,19.86
2023-03-22T12:56:50.117Z,19.74
2023-03-22T12:57:50.113Z,19.64
2023-03-22T12:58:50.059Z,19.58
2023-03-22T12:59:51.068Z,19.58
2023-03-22T13:00:50.198Z,19.33
2023-03-22T13:01:49.987Z,19.07
2023-03-22T13:02:50.158Z,19.09
2023-03-22T13:03:50.118Z,19.22
2023-03-22T13:04:50.921Z,18.93